Time;durP1;ratioP1;P1;durP2;ratioP2;P2;SDS_P1;SDS_P2;PMS_P1;PMS_P2;Temp;Humidity;BMP_temperature;BMP_pressure;BME280_temperature;BME280_humidity;BME280_pressure;Samples;Min_cycle;Max_cycle;Signal;HPM_P1;HPM_P2
2022/09/21 00:01:15;;;;;;;2.97;2.67;;;13.50;68.40;;;-142.21;93.26;112049.66;5032379;28;20441;-74
2022/09/21 00:03:43;;;;;;;5.17;2.90;;;13.40;68.70;;;-142.21;93.63;112049.66;5023808;28;20984;-75
2022/09/21 00:06:15;;;;;;;3.83;2.63;;;13.30;68.80;;;-142.21;93.43;112049.66;5028704;28;20453;-75
2022/09/21 00:08:44;;;;;;;3.20;2.70;;;13.30;68.60;;;-142.21;92.46;112049.66;5015026;28;20993;-75
2022/09/21 00:11:13;;;;;;;4.90;2.63;;;13.40;68.50;;;-142.21;92.27;112049.66;5015931;28;20488;-74
2022/09/21 00:13:42;;;;;;;3.10;2.80;;;13.30;68.20;;;-142.21;92.48;112049.66;5015055;28;20449;-74
2022/09/21 00:16:09;;;;;;;4.27;3.07;;;13.30;68.20;;;-142.21;92.66;112049.66;5005789;28;20449;-74
2022/09/21 00:18:37;;;;;;;3.77;2.87;;;13.30;68.20;;;-142.21;93.03;112049.66;5020744;28;20950;-74
2022/09/21 00:21:07;;;;;;;6.70;3.23;;;13.30;68.40;;;-142.21;93.29;112049.66;5016729;28;20446;-74
2022/09/21 00:23:37;;;;;;;5.00;3.50;;;13.30;68.60;;;-142.21;93.48;112049.66;4983922;28;20449;-74
2022/09/21 00:26:07;;;;;;;3.83;3.07;;;13.20;68.90;;;-142.21;94.07;112049.66;5021128;28;20945;-75
2022/09/21 00:28:34;;;;;;;5.33;2.97;;;13.20;69.00;;;-142.21;92.74;112049.66;5033142;28;20502;-74
2022/09/21 00:31:03;;;;;;;3.20;2.90;;;13.10;68.40;;;-142.21;92.22;112049.66;5033332;28;20579;-75
2022/09/21 00:33:31;;;;;;;6.97;3.27;;;13.20;68.30;;;-142.21;91.96;112049.66;5024264;28;20442;-75
2022/09/21 00:36:03;;;;;;;5.40;3.20;;;13.20;68.20;;;-142.21;91.79;112049.66;5015182;28;20452;-74
2022/09/21 00:38:30;;;;;;;4.50;2.83;;;13.10;68.20;;;-142.21;92.15;112049.66;4997635;28;20458;-75
2022/09/21 00:40:59;;;;;;;5.47;3.30;;;13.10;68.20;;;-142.21;92.35;112049.66;5034670;28;20477;-74
2022/09/21 00:43:26;;;;;;;5.30;3.00;;;13.10;68.00;;;-142.21;92.21;112049.66;5031679;28;20457;-74
2022/09/21 00:46:02;;;;;;;5.10;2.97;;;13.10;67.90;;;-142.21;93.19;112049.66;5031187;28;20949;-75
2022/09/21 00:48:31;;;;;;;5.77;3.40;;;13.10;68.40;;;-142.21;93.54;112049.66;5021638;28;20921;-76
2022/09/21 00:51:06;;;;;;;4.50;3.23;;;13.00;69.50;;;-142.21;93.35;112049.66;5015368;28;20500;-75
2022/09/21 00:53:34;;;;;;;4.70;2.93;;;13.00;68.60;;;-142.21;93.30;112049.66;5010191;28;20460;-75
2022/09/21 00:56:05;;;;;;;4.03;2.80;;;13.00;68.60;;;-142.21;93.02;112049.66;5034634;28;20449;-75
2022/09/21 00:58:39;;;;;;;3.87;2.70;;;13.00;68.60;;;-142.21;92.49;112049.66;5026899;28;20441;-76
2022/09/21 01:01:06;;;;;;;5.17;2.97;;;12.90;68.20;;;-142.21;93.00;112049.66;5015743;28;20465;-75
2022/09/21 01:03:34;;;;;;;5.13;3.40;;;12.90;68.30;;;-142.21;93.11;112049.66;5019152;28;20449;-74
2022/09/21 01:06:01;;;;;;;6.17;3.03;;;12.90;68.40;;;-142.21;93.54;112049.66;5022871;28;20445;-75
2022/09/21 01:08:29;;;;;;;4.53;3.70;;;12.80;69.20;;;-142.21;93.42;112049.66;5014199;28;20490;-75
2022/09/21 01:11:37;;;;;;;3.40;3.10;;;12.80;68.60;;;-142.21;93.72;112049.66;5014746;28;20489;-75
2022/09/21 01:14:35;;;;;;;4.13;3.00;;;12.80;69.00;;;-142.21;92.94;112049.66;5031576;28;20550;-75
2022/09/21 01:17:10;;;;;;;3.67;3.00;;;12.80;68.80;;;-142.21;93.06;112049.66;4998415;28;20446;-76
2022/09/21 01:20:10;;;;;;;4.13;3.17;;;12.70;68.40;;;-142.21;93.73;112049.66;5025395;28;20445;-75
2022/09/21 01:22:59;;;;;;;3.77;3.20;;;12.70;68.70;;;-142.21;92.86;112049.66;5006077;28;20946;-74
2022/09/21 01:25:38;;;;;;;5.17;3.17;;;12.70;68.70;;;-142.21;92.90;112049.66;5020447;28;20434;-75
2022/09/21 01:28:29;;;;;;;4.30;2.90;;;12.60;68.40;;;-142.21;92.92;112049.66;5023094;28;20453;-75
2022/09/21 01:31:05;;;;;;;3.77;2.90;;;12.70;68.60;;;-142.21;92.90;112049.66;5022506;28;20505;-76
2022/09/21 01:33:40;;;;;;;4.20;2.90;;;12.60;68.60;;;-142.21;93.05;112049.66;5021915;28;20511;-76
2022/09/21 01:36:14;;;;;;;4.83;3.00;;;12.70;68.80;;;-142.21;92.73;112049.66;4996692;28;20446;-75
2022/09/21 01:38:48;;;;;;;5.40;3.20;;;12.60;68.50;;;-142.21;92.82;112049.66;5019456;28;20458;-76
2022/09/21 01:41:22;;;;;;;5.27;3.30;;;12.60;68.60;;;-142.21;93.67;112049.66;5033092;28;20988;-75
2022/09/21 01:43:56;;;;;;;3.10;2.80;;;12.50;69.50;;;-142.21;93.76;112049.66;5033065;28;20449;-75
2022/09/21 01:46:32;;;;;;;6.00;3.23;;;12.50;68.90;;;-142.21;93.72;112049.66;5029944;28;20934;-76
2022/09/21 01:49:11;;;;;;;4.33;3.13;;;12.50;68.90;;;-142.21;93.54;112049.66;4963872;28;20453;-76
2022/09/21 01:51:45;;;;;;;3.20;2.90;;;12.50;68.80;;;-142.21;93.63;112049.66;5014266;28;20493;-75
2022/09/21 01:54:21;;;;;;;4.73;3.03;;;12.40;68.70;;;-142.21;93.34;112049.66;5032166;28;20429;-75
2022/09/21 01:56:54;;;;;;;4.77;3.17;;;12.50;68.80;;;-142.21;93.50;112049.66;4997268;28;20456;-74
2022/09/21 01:59:35;;;;;;;4.47;2.83;;;12.40;68.50;;;-142.21;93.63;112049.66;5031955;28;20437;-75
2022/09/21 02:02:12;;;;;;;4.03;3.20;;;12.40;68.60;;;-142.21;93.48;112049.66;5028816;28;20500;-75
2022/09/21 02:04:40;;;;;;;3.33;2.97;;;12.40;68.80;;;-142.21;93.38;112049.66;5027500;28;20448;-74
2022/09/21 02:07:10;;;;;;;4.33;2.97;;;12.40;68.80;;;-142.21;93.13;112049.66;5020546;28;20467;-75
2022/09/21 02:09:38;;;;;;;4.47;2.60;;;12.30;68.60;;;-142.21;93.30;112049.66;5012646;28;20937;-75
2022/09/21 02:12:05;;;;;;;5.07;2.80;;;12.30;68.60;;;-142.21;93.57;112049.66;5031361;28;20794;-74
2022/09/21 02:14:36;;;;;;;3.97;2.73;;;12.30;68.50;;;-142.21;93.13;112049.66;5029210;28;20450;-75
2022/09/21 02:17:26;;;;;;;3.60;2.87;;;12.30;68.40;;;-142.21;93.62;112049.66;5024056;28;20438;-74
2022/09/21 02:20:07;;;;;;;3.20;2.90;;;12.20;68.60;;;-142.21;93.83;112049.66;5013084;28;20786;-74
2022/09/21 02:22:50;;;;;;;3.03;2.73;;;12.20;68.60;;;-142.21;93.54;112049.66;5026094;28;20438;-74
2022/09/21 02:25:31;;;;;;;3.27;2.97;;;12.20;68.60;;;-142.21;93.81;112049.66;5013432;28;20546;-74
2022/09/21 02:28:08;;;;;;;3.80;2.90;;;12.20;68.60;;;-142.21;93.58;112049.66;4961943;28;20464;-74
2022/09/21 02:30:38;;;;;;;4.40;3.00;;;12.20;68.60;;;-142.21;93.28;112049.66;5012895;28;20474;-74
2022/09/21 02:33:13;;;;;;;5.67;2.60;;;12.10;68.50;;;-142.21;92.99;112049.66;5025228;28;20437;-75
2022/09/21 02:35:48;;;;;;;5.30;2.60;;;12.20;68.40;;;-142.21;92.32;112049.66;5020007;28;20441;-74
2022/09/21 02:38:25;;;;;;;4.23;2.70;;;12.20;68.10;;;-142.21;92.95;112049.66;5019320;28;20468;-75
2022/09/21 02:40:59;;;;;;;3.50;2.97;;;12.20;68.30;;;-142.21;92.74;112049.66;5000604;28;20441;-74
2022/09/21 02:43:35;;;;;;;5.00;3.10;;;12.20;68.20;;;-142.21;92.20;112049.66;4996638;28;20529;-74
2022/09/21 02:46:10;;;;;;;4.57;2.60;;;12.10;67.80;;;-142.21;92.29;112049.66;5013082;28;20532;-75
2022/09/21 02:48:46;;;;;;;4.47;2.97;;;12.00;67.80;;;-142.21;92.39;112049.66;5028115;28;20481;-74
2022/09/21 02:51:21;;;;;;;3.57;2.90;;;12.00;68.00;;;-142.21;92.52;112049.66;5031708;28;20469;-75
2022/09/21 02:53:51;;;;;;;6.77;2.53;;;12.00;68.10;;;-142.21;92.64;112049.66;5015697;28;20448;-74
2022/09/21 02:56:20;;;;;;;7.07;2.83;;;12.00;68.20;;;-142.21;92.73;112049.66;5013046;28;20450;-75
2022/09/21 02:58:54;;;;;;;4.30;2.77;;;11.90;67.90;;;-142.21;92.81;112049.66;5014472;28;20449;-76
2022/09/21 03:01:24;;;;;;;6.00;3.00;;;11.90;68.00;;;-142.21;92.89;112049.66;5031184;28;20940;-76
2022/09/21 03:03:53;;;;;;;4.33;3.30;;;11.90;68.10;;;-142.21;93.40;112049.66;5030701;28;20445;-75
2022/09/21 03:06:20;;;;;;;3.90;3.00;;;11.80;68.30;;;-142.21;93.65;112049.66;4983217;28;20451;-75
2022/09/21 03:08:47;;;;;;;4.83;3.10;;;11.70;68.40;;;-142.21;93.45;112049.66;5027944;28;20476;-76
2022/09/21 03:11:17;;;;;;;3.93;2.80;;;11.70;68.30;;;-142.21;93.62;112049.66;5013226;28;20675;-76
2022/09/21 03:13:44;;;;;;;3.57;2.60;;;11.80;68.70;;;-142.21;93.32;112049.66;5016089;28;20450;-75
2022/09/21 03:16:13;;;;;;;3.40;2.80;;;11.80;68.40;;;-142.21;93.42;112049.66;5027721;28;20515;-75
2022/09/21 03:18:43;;;;;;;4.67;3.17;;;11.80;68.50;;;-142.21;93.20;112049.66;5031671;28;20921;-74
2022/09/21 03:21:12;;;;;;;3.83;2.83;;;11.80;68.50;;;-142.21;93.39;112049.66;5031395;28;20518;-76
2022/09/21 03:23:40;;;;;;;5.97;3.23;;;11.70;68.40;;;-142.21;92.91;112049.66;5031522;28;20448;-75
2022/09/21 03:26:08;;;;;;;5.13;2.80;;;11.70;68.20;;;-142.21;93.39;112049.66;5017630;28;20453;-75
2022/09/21 03:28:35;;;;;;;3.50;2.87;;;11.70;68.20;;;-142.21;93.65;112049.66;5012906;28;20476;-76
2022/09/21 03:31:02;;;;;;;3.30;2.80;;;11.70;68.30;;;-142.21;93.76;112049.66;5012514;28;20486;-75
2022/09/21 03:33:29;;;;;;;3.90;2.50;;;11.60;68.40;;;-142.21;93.90;112049.66;5012557;28;20450;-76
2022/09/21 03:35:56;;;;;;;4.27;3.10;;;11.60;68.50;;;-142.21;94.00;112049.66;5011803;28;20532;-75
2022/09/21 03:38:25;;;;;;;6.13;2.93;;;11.50;68.30;;;-142.21;94.29;112049.66;5012571;28;20492;-75
2022/09/21 03:40:57;;;;;;;3.83;3.00;;;11.50;68.50;;;-142.21;93.86;112049.66;5012048;28;20465;-75
2022/09/21 03:43:25;;;;;;;3.23;2.53;;;11.50;68.50;;;-142.21;93.69;112049.66;4995542;28;20446;-77
2022/09/21 03:45:52;;;;;;;4.67;2.87;;;11.50;68.50;;;-142.21;93.77;112049.66;4994767;28;20504;-76
2022/09/21 03:48:20;;;;;;;4.50;2.60;;;11.50;68.50;;;-142.21;93.62;112049.66;5029503;28;20938;-74
2022/09/21 03:50:47;;;;;;;3.20;2.90;;;11.50;68.40;;;-142.21;93.62;112049.66;5029668;28;20512;-75
2022/09/21 03:53:16;;;;;;;3.27;2.97;;;11.40;68.40;;;-142.21;93.82;112049.66;5023493;28;20434;-75
2022/09/21 03:55:44;;;;;;;4.07;3.10;;;11.40;68.50;;;-142.21;93.66;112049.66;5024685;28;20451;-76
2022/09/21 03:58:11;;;;;;;3.53;2.70;;;11.40;68.50;;;-142.21;93.58;112049.66;5032766;28;20544;-76
2022/09/21 04:00:39;;;;;;;3.83;3.03;;;11.40;68.50;;;-142.21;93.20;112049.66;5031893;28;20443;-74
2022/09/21 04:03:06;;;;;;;4.03;3.10;;;11.40;68.40;;;-142.21;93.50;112049.66;5017039;28;20773;-76
2022/09/21 04:05:34;;;;;;;3.67;2.77;;;11.30;68.40;;;-142.21;93.52;112049.66;5027633;28;20832;-76
2022/09/21 04:08:01;;;;;;;5.40;2.63;;;11.30;68.40;;;-142.21;93.21;112049.66;5011115;28;20591;-75
2022/09/21 04:10:32;;;;;;;4.17;2.73;;;11.30;68.50;;;-142.21;93.61;112049.66;5023656;28;20473;-75
2022/09/21 04:13:02;;;;;;;3.23;2.83;;;11.30;68.60;;;-142.21;93.62;112049.66;5030985;28;20964;-76
2022/09/21 04:15:30;;;;;;;4.67;2.87;;;11.30;68.60;;;-142.21;94.33;112049.66;5017810;28;20446;-75
2022/09/21 04:17:58;;;;;;;2.93;2.70;;;11.20;68.50;;;-142.21;94.50;112049.66;5003235;28;20473;-75
2022/09/21 04:20:25;;;;;;;4.90;3.07;;;11.20;68.60;;;-142.21;95.04;112049.66;5024530;28;20492;-75
2022/09/21 04:22:52;;;;;;;5.93;3.27;;;11.20;68.80;;;-142.21;94.82;112049.66;5016444;28;20946;-75
2022/09/21 04:25:20;;;;;;;3.40;2.70;;;11.20;68.80;;;-142.21;94.73;112049.66;5015735;28;20442;-76
2022/09/21 04:27:47;;;;;;;3.10;2.80;;;11.20;68.90;;;-142.21;94.82;112049.66;5031631;28;20511;-75
2022/09/21 04:30:17;;;;;;;5.67;3.07;;;11.10;68.70;;;-142.21;94.54;112049.66;5025232;28;20464;-76
2022/09/21 04:32:45;;;;;;;5.00;3.43;;;11.10;68.70;;;-142.21;94.15;112049.66;5016536;28;20631;-77
2022/09/21 04:35:12;;;;;;;4.83;2.83;;;11.10;68.70;;;-142.21;94.01;112049.66;5014768;28;20533;-77
2022/09/21 04:37:39;;;;;;;3.50;3.10;;;11.10;68.70;;;-142.21;93.93;112049.66;4997990;28;20461;-78
2022/09/21 04:40:09;;;;;;;3.70;2.67;;;11.10;68.50;;;-142.21;93.86;112049.66;5027462;28;20452;-76
2022/09/21 04:42:36;;;;;;;3.20;2.90;;;11.00;68.40;;;-142.21;94.31;112049.66;5054408;28;20440;-75
2022/09/21 04:45:04;;;;;;;3.23;2.93;;;11.10;68.50;;;-142.21;94.19;112049.66;5042835;28;20461;-75
2022/09/21 04:47:32;;;;;;;3.33;3.00;;;11.10;68.60;;;-142.21;94.39;112049.66;5030093;28;20528;-75
2022/09/21 04:50:00;;;;;;;3.90;3.00;;;11.10;68.50;;;-142.21;95.16;112049.66;5014162;28;20482;-75
2022/09/21 04:52:27;;;;;;;3.23;2.70;;;11.00;69.50;;;-142.21;94.64;112049.66;5014865;28;20486;-74
2022/09/21 04:54:55;;;;;;;8.47;3.40;;;11.00;68.50;;;-142.21;94.78;112049.66;5023799;28;20475;-76
2022/09/21 04:57:22;;;;;;;3.13;2.83;;;10.90;68.40;;;-142.21;94.51;112049.66;5018200;28;20533;-75
2022/09/21 04:59:49;;;;;;;4.93;3.43;;;11.00;68.50;;;-142.21;94.65;112049.66;5014167;28;20548;-73
2022/09/21 05:02:16;;;;;;;6.33;3.20;;;11.00;68.40;;;-142.21;94.39;112049.66;5028477;28;20529;-73
2022/09/21 05:04:45;;;;;;;3.07;2.77;;;10.90;68.30;;;-142.21;94.14;112049.66;5026281;28;20541;-74
2022/09/21 05:07:15;;;;;;;5.60;2.90;;;10.90;68.30;;;-142.21;93.91;112049.66;5017337;28;21012;-74
2022/09/21 05:12:27;;;;;;;3.37;3.07;;;10.90;69.00;;;-142.21;93.92;112049.66;5020553;28;20819;-74
2022/09/21 05:14:54;;;;;;;3.27;2.80;;;10.90;68.20;;;-142.21;93.91;112049.66;5030105;28;20485;-74
2022/09/21 05:17:22;;;;;;;3.07;2.77;;;10.80;68.00;;;-142.21;94.34;112049.66;5034175;28;20793;-73
2022/09/21 05:19:52;;;;;;;3.43;3.13;;;10.90;68.40;;;-142.21;94.85;112049.66;5032935;28;20449;-74
2022/09/21 05:22:20;;;;;;;5.00;3.10;;;10.80;68.50;;;-142.21;95.24;112049.66;5022657;28;20868;-74
2022/09/21 05:24:47;;;;;;;3.43;3.13;;;10.80;68.50;;;-142.21;95.03;112049.66;5020044;28;20500;-74
2022/09/21 05:27:14;;;;;;;4.57;3.07;;;10.80;68.60;;;-142.21;95.60;112049.66;5014162;28;20535;-73
2022/09/21 05:29:42;;;;;;;5.47;3.20;;;10.80;68.90;;;-142.21;95.81;112049.66;5014257;28;20480;-73
2022/09/21 05:32:24;;;;;;;3.80;3.30;;;10.80;68.90;;;-142.21;95.71;112049.66;5013485;28;20561;-73
2022/09/21 05:35:11;;;;;;;7.03;3.33;;;10.80;69.20;;;-142.21;96.08;112049.66;5029749;28;20444;-73
2022/09/21 05:37:52;;;;;;;4.00;3.30;;;10.80;69.50;;;-142.21;95.97;112049.66;5033394;28;20496;-75
2022/09/21 05:40:21;;;;;;;3.63;2.80;;;10.80;69.60;;;-142.21;96.34;112049.66;5014111;28;20430;-74
2022/09/21 05:42:49;;;;;;;3.97;3.10;;;10.80;69.40;;;-142.21;96.63;112049.66;5021174;28;20841;-73
2022/09/21 05:45:19;;;;;;;3.53;3.23;;;10.80;69.50;;;-142.21;97.00;112049.66;5022223;28;20480;-73
2022/09/21 05:47:59;;;;;;;4.00;2.87;;;10.80;69.60;;;-142.21;97.10;112049.66;5013144;28;20434;-74
2022/09/21 05:50:45;;;;;;;3.83;3.03;;;10.70;69.90;;;-142.21;97.09;112049.66;5019021;28;20441;-73
2022/09/21 05:53:49;;;;;;;3.63;3.17;;;10.80;70.20;;;-142.21;96.95;112049.66;5013285;28;20536;-73
2022/09/21 05:56:43;;;;;;;4.60;3.57;;;10.80;70.30;;;-142.21;97.08;112049.66;5012245;28;20480;-74
2022/09/21 05:59:34;;;;;;;5.83;3.47;;;10.80;71.40;;;-142.21;97.77;112049.66;5014954;28;20435;-73
2022/09/21 06:02:14;;;;;;;5.10;3.50;;;10.80;70.70;;;-142.21;98.22;112049.66;5030425;28;20437;-73
2022/09/21 06:04:42;;;;;;;4.47;3.57;;;10.90;71.00;;;-142.21;98.70;112049.66;5030604;28;20473;-74
2022/09/21 06:07:10;;;;;;;6.27;4.07;;;10.90;71.20;;;-142.21;98.58;112049.66;5031723;28;20465;-74
2022/09/21 06:09:37;;;;;;;3.70;3.30;;;11.00;71.40;;;-142.21;98.93;112049.66;5033026;28;20434;-73
2022/09/21 06:12:05;;;;;;;5.20;3.80;;;11.00;71.40;;;-142.21;99.43;112049.66;4985056;28;20566;-73
2022/09/21 06:14:32;;;;;;;4.50;3.57;;;11.00;71.50;;;-142.21;99.30;112049.66;5013656;28;20485;-73
2022/09/21 06:16:59;;;;;;;4.67;3.90;;;11.10;71.70;;;-142.21;99.86;112049.66;5027427;28;20451;-73
2022/09/21 06:19:27;;;;;;;4.23;3.83;;;11.20;71.80;;;-142.21;99.37;112049.66;5030573;28;20452;-73
2022/09/21 06:21:54;;;;;;;4.63;3.90;;;11.10;71.90;;;-142.21;100.00;112049.66;5011563;28;20492;-73
2022/09/21 06:24:23;;;;;;;5.70;3.83;;;11.30;71.90;;;-142.21;100.00;112049.66;5030002;28;20472;-73
2022/09/21 06:26:52;;;;;;;6.47;4.00;;;11.40;72.10;;;-142.21;100.00;112049.66;5032285;28;20480;-74
2022/09/21 06:29:22;;;;;;;5.13;4.00;;;11.40;72.20;;;-142.21;100.00;112049.66;5032952;28;20453;-74
2022/09/21 06:31:50;;;;;;;6.13;4.27;;;11.50;72.20;;;-142.21;100.00;112049.66;5031474;28;20560;-73
2022/09/21 06:34:18;;;;;;;6.20;4.27;;;11.50;72.60;;;-142.21;100.00;112049.66;5032655;28;20544;-73
2022/09/21 06:36:45;;;;;;;8.03;4.23;;;11.60;72.80;;;-142.21;100.00;112049.66;5032727;28;20479;-73
2022/09/21 06:39:13;;;;;;;6.07;3.87;;;11.60;72.80;;;-142.21;100.00;112049.66;5031914;28;20968;-74
2022/09/21 06:41:42;;;;;;;6.37;4.67;;;11.70;72.90;;;-142.21;100.00;112049.66;5032502;28;20441;-74
2022/09/21 06:44:09;;;;;;;6.83;4.37;;;11.80;73.10;;;-142.21;100.00;112049.66;5032143;28;20480;-73
2022/09/21 06:46:39;;;;;;;6.60;4.33;;;11.80;72.90;;;-142.21;100.00;112049.66;5031974;28;20961;-73
2022/09/21 06:49:06;;;;;;;6.40;4.10;;;11.90;73.00;;;-142.21;100.00;112049.66;5032145;28;20510;-73
2022/09/21 06:51:33;;;;;;;6.27;4.07;;;11.90;73.20;;;-142.21;100.00;112049.66;5032648;28;20489;-73
2022/09/21 06:54:01;;;;;;;10.20;4.57;;;12.00;73.30;;;-142.21;100.00;112049.66;5031884;28;20556;-73
2022/09/21 06:56:28;;;;;;;6.17;5.00;;;12.10;73.20;;;-142.21;100.00;112049.66;5032346;28;20492;-73
2022/09/21 06:58:57;;;;;;;6.57;4.37;;;12.20;73.50;;;-142.21;100.00;112049.66;5027771;28;20525;-73
2022/09/21 07:01:24;;;;;;;5.93;4.30;;;12.20;73.70;;;-142.21;100.00;112049.66;5012613;28;20545;-73
2022/09/21 07:03:52;;;;;;;6.30;4.70;;;12.30;73.80;;;-142.21;100.00;112049.66;5012251;28;20446;-73
2022/09/21 07:06:20;;;;;;;5.87;4.50;;;12.40;74.00;;;-142.21;100.00;112049.66;5012459;28;20500;-72
2022/09/21 07:08:48;;;;;;;7.13;4.77;;;12.50;73.90;;;-142.21;100.00;112049.66;5012103;28;20517;-72
2022/09/21 07:11:15;;;;;;;5.33;4.83;;;12.50;73.70;;;-142.21;100.00;112049.66;4977349;28;20509;-73
2022/09/21 07:13:42;;;;;;;8.00;4.70;;;12.60;73.50;;;-142.21;100.00;112049.66;5012298;28;20488;-73
2022/09/21 07:16:13;;;;;;;6.03;4.97;;;12.70;73.70;;;-142.21;100.00;112049.66;5019527;28;20492;-72
2022/09/21 07:18:41;;;;;;;7.70;4.67;;;12.70;73.60;;;-142.21;100.00;112049.66;5032449;28;20437;-73
2022/09/21 07:21:10;;;;;;;6.33;5.00;;;12.80;73.40;;;-142.21;100.00;112049.66;5031564;28;20485;-73
2022/09/21 07:23:38;;;;;;;5.90;4.87;;;12.90;74.20;;;-142.21;100.00;112049.66;5031933;28;20483;-74
2022/09/21 07:26:10;;;;;;;6.03;5.23;;;13.00;74.00;;;-142.21;100.00;112049.66;5033752;28;20449;-74
2022/09/21 07:28:37;;;;;;;5.43;4.40;;;13.10;74.00;;;-142.21;100.00;112049.66;5000666;28;20532;-74
2022/09/21 07:31:10;;;;;;;8.03;4.93;;;13.20;74.10;;;-142.21;100.00;112049.66;5032012;28;20926;-72
2022/09/21 07:33:39;;;;;;;6.57;5.47;;;13.20;74.70;;;-142.21;100.00;112049.66;5038818;28;20579;-73
2022/09/21 07:36:12;;;;;;;8.73;6.23;;;13.40;74.00;;;-142.21;100.00;112049.66;5041814;28;20536;-73
2022/09/21 07:38:44;;;;;;;6.37;5.27;;;13.40;73.80;;;-142.21;100.00;112049.66;5038442;28;20459;-74
2022/09/21 07:41:14;;;;;;;6.37;5.07;;;13.50;73.60;;;-142.21;100.00;112049.66;5035305;28;20433;-73
2022/09/21 07:43:42;;;;;;;7.90;5.40;;;13.70;73.60;;;-142.21;100.00;112049.66;5032272;28;20449;-73
2022/09/21 07:46:13;;;;;;;6.93;5.30;;;13.70;73.50;;;-142.21;100.00;112049.66;5015740;28;20450;-73
2022/09/21 07:48:42;;;;;;;8.13;5.33;;;13.90;73.50;;;-142.21;100.00;112049.66;5015990;28;20895;-73
2022/09/21 07:51:12;;;;;;;8.00;5.30;;;14.00;73.20;;;-142.21;100.00;112049.66;5015575;28;20450;-73
2022/09/21 07:53:42;;;;;;;6.20;5.13;;;14.10;73.00;;;-142.21;100.00;112049.66;5016047;28;20474;-73
2022/09/21 07:56:13;;;;;;;8.77;5.33;;;14.20;73.00;;;-142.21;99.77;112049.66;5015124;28;20434;-73
2022/09/21 08:01:27;;;;;;;5.47;4.80;;;14.50;72.50;;;-142.21;98.79;112049.66;5035526;28;20416;-73
2022/09/21 08:03:58;;;;;;;8.13;5.30;;;14.60;72.20;;;-142.21;98.50;112049.66;5035016;28;20448;-73
2022/09/21 08:06:28;;;;;;;5.47;4.67;;;14.70;72.30;;;-142.21;98.01;112049.66;5035554;28;20479;-73
2022/09/21 08:08:55;;;;;;;6.03;5.43;;;14.90;72.20;;;-142.21;97.92;112049.66;5034336;28;20615;-73
2022/09/21 08:11:24;;;;;;;9.33;4.97;;;15.00;72.10;;;-142.21;97.57;112049.66;5035410;28;20540;-73
2022/09/21 08:13:54;;;;;;;6.83;4.90;;;15.10;71.90;;;-142.21;97.36;112049.66;5034416;28;20483;-73
2022/09/21 08:16:22;;;;;;;6.33;5.10;;;15.20;71.70;;;-142.21;96.61;112049.66;5034967;28;20445;-74
2022/09/21 08:18:50;;;;;;;5.77;4.93;;;15.30;71.50;;;-142.21;95.26;112049.66;5035520;28;20496;-74
2022/09/21 08:21:19;;;;;;;6.30;4.73;;;15.40;70.70;;;-142.21;95.08;112049.66;5034711;28;20452;-73
2022/09/21 08:23:48;;;;;;;6.97;5.27;;;15.50;70.60;;;-142.21;95.11;112049.66;5035237;28;20445;-73
2022/09/21 08:26:18;;;;;;;6.50;4.53;;;15.70;70.70;;;-142.21;94.04;112049.66;5034230;28;21024;-73
2022/09/21 08:28:48;;;;;;;6.13;4.63;;;15.80;70.40;;;-142.21;93.86;112049.66;5034700;28;20519;-73
2022/09/21 08:31:17;;;;;;;7.40;4.50;;;15.90;70.30;;;-142.21;93.05;112049.66;5034493;28;20934;-73
2022/09/21 08:33:45;;;;;;;8.63;5.17;;;16.10;69.90;;;-142.21;92.50;112049.66;5035215;28;20495;-73
2022/09/21 08:36:15;;;;;;;6.43;4.83;;;16.20;69.10;;;-142.21;91.38;112049.66;5034364;28;20445;-73
2022/09/21 08:38:46;;;;;;;6.93;4.20;;;16.30;68.70;;;-142.21;91.88;112049.66;5035193;28;20453;-73
2022/09/21 08:41:19;;;;;;;7.63;4.90;;;16.40;68.80;;;-142.21;92.19;112049.66;5034059;28;20425;-73
2022/09/21 08:43:52;;;;;;;7.00;4.40;;;16.60;69.10;;;-142.21;91.48;112049.66;5034581;28;20433;-73
2022/09/21 08:46:25;;;;;;;6.73;4.67;;;16.70;68.50;;;-142.21;90.30;112049.66;5033348;28;20430;-73
2022/09/21 08:49:02;;;;;;;5.27;4.60;;;16.80;68.00;;;-142.21;89.55;112049.66;5034532;28;20465;-73
2022/09/21 08:51:36;;;;;;;5.60;4.07;;;16.90;67.80;;;-142.21;90.18;112049.66;5035018;28;20444;-73
2022/09/21 08:54:16;;;;;;;7.20;4.13;;;17.00;68.00;;;-142.21;89.49;112049.66;5034290;28;20580;-73
2022/09/21 08:56:43;;;;;;;6.87;4.67;;;17.20;67.90;;;-142.21;87.50;112049.66;5034601;28;20465;-73
2022/09/21 08:59:14;;;;;;;6.37;3.90;;;17.40;67.60;;;-142.21;87.28;112049.66;5033195;28;20496;-72
2022/09/21 09:01:58;;;;;;;5.43;3.83;;;17.50;66.60;;;-142.21;86.18;112049.66;5034718;28;20437;-72
2022/09/21 09:04:49;;;;;;;6.77;3.70;;;17.70;66.10;;;-142.21;85.15;112049.66;5034459;28;20444;-73
2022/09/21 09:07:54;;;;;;;7.27;4.07;;;17.80;65.50;;;-142.21;83.71;112049.66;5033512;28;20534;-73
2022/09/21 09:10:37;;;;;;;5.53;4.00;;;18.00;65.10;;;-142.21;82.03;112049.66;5033538;28;20464;-74
2022/09/21 09:13:33;;;;;;;5.03;3.70;;;18.20;64.20;;;-142.21;82.17;112049.66;5033445;28;20476;-73
2022/09/21 09:16:17;;;;;;;6.33;3.73;;;18.30;63.90;;;-142.21;80.64;112049.66;5032966;28;20499;-73
2022/09/21 09:18:52;;;;;;;7.57;4.17;;;18.50;62.80;;;-142.21;80.64;112049.66;5033817;28;20437;-74
2022/09/21 09:21:27;;;;;;;6.20;3.70;;;18.60;62.90;;;-142.21;81.62;112049.66;5033294;28;20465;-73
2022/09/21 09:24:02;;;;;;;5.47;4.23;;;18.80;63.10;;;-142.21;78.77;112049.66;5034075;28;20432;-73
2022/09/21 09:26:41;;;;;;;5.30;3.87;;;18.90;61.70;;;-142.21;77.93;112049.66;5034217;28;20429;-73
2022/09/21 09:29:22;;;;;;;5.03;3.00;;;19.00;61.00;;;-142.21;74.75;112049.66;5032646;28;20476;-74
2022/09/21 09:31:54;;;;;;;3.83;2.50;;;19.20;60.20;;;-142.21;75.58;112049.66;5034017;28;20473;-73
2022/09/21 09:34:32;;;;;;;3.43;2.40;;;19.30;60.30;;;-142.21;74.39;112049.66;5033275;28;20469;-73
2022/09/21 09:37:10;;;;;;;6.23;2.33;;;19.50;59.90;;;-142.21;70.56;112049.66;5033258;28;20551;-73
2022/09/21 09:39:37;;;;;;;2.93;2.00;;;19.60;59.10;;;-142.21;65.69;112049.66;5033781;28;20195;-73
2022/09/21 09:42:31;;;;;;;3.13;2.07;;;19.70;57.60;;;-142.21;66.16;112049.66;5033050;28;20210;-73
2022/09/21 09:45:38;;;;;;;3.40;1.80;;;19.80;57.00;;;-142.21;66.37;112049.66;5033661;28;20282;-73
2022/09/21 09:48:34;;;;;;;3.53;2.10;;;19.90;57.10;;;-142.21;64.26;112049.66;5033028;28;20194;-73
2022/09/21 09:51:02;;;;;;;3.50;1.70;;;20.10;56.30;;;-142.21;63.52;112049.66;5032679;28;20208;-74
2022/09/21 09:53:30;;;;;;;1.97;1.63;;;20.20;56.60;;;-142.21;62.13;112049.66;5033384;28;20280;-73
2022/09/21 09:56:00;;;;;;;1.73;1.63;;;20.30;55.90;;;-142.21;60.69;112049.66;5033642;28;20881;-73
2022/09/21 09:58:41;;;;;;;2.73;1.60;;;20.50;55.70;;;-142.21;59.98;112049.66;5032742;28;20443;-72
2022/09/21 10:01:08;;;;;;;1.77;1.67;;;20.60;55.20;;;-142.21;58.44;112049.66;5032701;28;20195;-74
2022/09/21 10:03:37;;;;;;;4.50;1.40;;;20.70;55.00;;;-142.21;59.73;112049.66;5033046;28;20721;-74
2022/09/21 10:06:04;;;;;;;2.57;1.70;;;20.80;55.00;;;-142.21;60.50;112049.66;5032570;28;20210;-73
2022/09/21 10:08:45;;;;;;;3.37;1.70;;;20.90;55.10;;;-142.21;54.80;112049.66;5032675;28;20280;-73
2022/09/21 10:12:11;;;;;;;2.90;1.60;;;21.00;53.40;;;-142.21;57.60;112049.66;5031601;28;20646;-73
2022/09/21 10:14:48;;;;;;;4.53;1.37;;;21.20;53.60;;;-142.21;57.43;112049.66;5013060;28;20675;-73
2022/09/21 10:17:18;;;;;;;3.13;1.50;;;21.40;54.20;;;-142.21;56.61;112049.66;5028670;28;20252;-73
2022/09/21 10:19:46;;;;;;;1.70;1.20;;;21.60;54.00;;;-142.21;54.14;112049.66;5033108;28;20269;-73
2022/09/21 10:22:19;;;;;;;2.17;1.73;;;21.70;53.30;;;-142.21;52.39;112049.66;5032328;28;20237;-74
2022/09/21 10:24:53;;;;;;;1.97;1.50;;;21.80;52.20;;;-142.21;53.61;112049.66;5032743;28;20186;-73